LNR032 LFLI-LFLJ
Flight info
| Callsign | LNR032 |
|---|---|
| Flight time | 0h 22m |
| Altitude | 13500 |
| Route | 460831N0061540E DCT EMGUT DCT 454909N0063059E DCT PENJO DCT 454032N0062333E 453907N0062659E DCT 453327N0062741E 452905N0063143E 452638N0063607E 452635N0063850E DCT 452520N0064004E |
| Aircraft | C208/L-SBDFGRWY/S |
Departure
| Time | 2026-04-26 14:57 |
|---|---|
| Airport | Annemasse Airfield (LFLI) |
Arrival
| Time | 2026-04-26 15:20 |
|---|---|
| Airport | Courchevel Altiport (LFLJ) |
| Time | Latitude | Longitude | Altitude | Speed | Heading |
|---|---|---|---|---|---|
| 2026-04-26 14:48 | 46.19457 | 6.26653 | 1627 ft | 0 kts | 185° |
| 2026-04-26 14:52 | 46.19454 | 6.26653 | 1627 ft | 2 kts | 185° |
| 2026-04-26 14:52 | 46.19429 | 6.26646 | 1627 ft | 4 kts | 202° |
| 2026-04-26 14:52 | 46.19397 | 6.26599 | 1627 ft | 10 kts | 205° |
| 2026-04-26 14:52 | 46.19350 | 6.26695 | 1627 ft | 15 kts | 115° |
| 2026-04-26 14:53 | 46.19301 | 6.26826 | 1627 ft | 13 kts | 118° |
| 2026-04-26 14:53 | 46.19258 | 6.26950 | 1627 ft | 12 kts | 116° |
| 2026-04-26 14:53 | 46.19230 | 6.27038 | 1627 ft | 8 kts | 115° |
| 2026-04-26 14:53 | 46.19197 | 6.27130 | 1627 ft | 12 kts | 118° |
| 2026-04-26 14:54 | 46.19161 | 6.27232 | 1627 ft | 13 kts | 116° |
| 2026-04-26 14:54 | 46.19121 | 6.27342 | 1627 ft | 10 kts | 121° |
| 2026-04-26 14:54 | 46.19087 | 6.27440 | 1627 ft | 9 kts | 118° |
| 2026-04-26 14:54 | 46.19053 | 6.27534 | 1627 ft | 12 kts | 116° |
| 2026-04-26 14:55 | 46.19009 | 6.27620 | 1627 ft | 9 kts | 158° |
| 2026-04-26 14:55 | 46.18969 | 6.27613 | 1628 ft | 3 kts | 207° |
| 2026-04-26 14:55 | 46.18964 | 6.27609 | 1628 ft | 1 kts | 208° |
| 2026-04-26 14:55 | 46.18935 | 6.27584 | 1629 ft | 7 kts | 232° |
| 2026-04-26 14:56 | 46.18936 | 6.27556 | 1629 ft | 0 kts | 297° |
| 2026-04-26 14:56 | 46.18937 | 6.27554 | 1629 ft | 5 kts | 297° |
| 2026-04-26 14:56 | 46.19042 | 6.27271 | 1630 ft | 57 kts | 298° |
| 2026-04-26 14:56 | 46.19292 | 6.26571 | 1660 ft | 94 kts | 301° |
| 2026-04-26 14:57 | 46.19592 | 6.25712 | 1863 ft | 98 kts | 303° |
| 2026-04-26 14:57 | 46.19874 | 6.24822 | 2142 ft | 100 kts | 274° |
| 2026-04-26 14:57 | 46.19519 | 6.23916 | 2410 ft | 110 kts | 209° |
| 2026-04-26 14:57 | 46.18824 | 6.23785 | 2708 ft | 105 kts | 149° |
| 2026-04-26 14:58 | 46.18208 | 6.24405 | 2928 ft | 120 kts | 157° |
| 2026-04-26 14:58 | 46.17311 | 6.24360 | 3176 ft | 134 kts | 183° |
| 2026-04-26 14:58 | 46.16373 | 6.24258 | 3431 ft | 138 kts | 181° |
| 2026-04-26 14:58 | 46.15409 | 6.24177 | 3826 ft | 139 kts | 182° |
| 2026-04-26 14:59 | 46.14431 | 6.24103 | 4143 ft | 140 kts | 181° |
| 2026-04-26 14:59 | 46.13450 | 6.24040 | 4485 ft | 143 kts | 182° |
| 2026-04-26 14:59 | 46.12488 | 6.24344 | 4834 ft | 141 kts | 152° |
| 2026-04-26 14:59 | 46.11896 | 6.24726 | 5104 ft | 142 kts | 153° |
| 2026-04-26 15:00 | 46.10671 | 6.25467 | 5536 ft | 145 kts | 154° |
| 2026-04-26 15:00 | 46.09734 | 6.26041 | 5865 ft | 146 kts | 154° |
| 2026-04-26 15:00 | 46.08803 | 6.26625 | 6194 ft | 146 kts | 155° |
| 2026-04-26 15:00 | 46.07894 | 6.27218 | 6555 ft | 142 kts | 153° |
| 2026-04-26 15:01 | 46.06975 | 6.27812 | 6806 ft | 146 kts | 155° |
| 2026-04-26 15:01 | 46.06069 | 6.28397 | 7177 ft | 140 kts | 154° |
| 2026-04-26 15:01 | 46.05176 | 6.28979 | 7515 ft | 141 kts | 154° |
| 2026-04-26 15:01 | 46.04277 | 6.29565 | 7813 ft | 142 kts | 155° |
| 2026-04-26 15:02 | 46.03397 | 6.30147 | 8162 ft | 140 kts | 154° |
| 2026-04-26 15:02 | 46.02514 | 6.30739 | 8481 ft | 139 kts | 154° |
| 2026-04-26 15:02 | 46.01643 | 6.31327 | 8791 ft | 138 kts | 154° |
| 2026-04-26 15:02 | 46.00774 | 6.31919 | 9080 ft | 138 kts | 154° |
| 2026-04-26 15:03 | 45.99908 | 6.32511 | 9406 ft | 137 kts | 154° |
| 2026-04-26 15:03 | 45.99051 | 6.33103 | 9747 ft | 136 kts | 155° |
| 2026-04-26 15:03 | 45.98207 | 6.33728 | 10062 ft | 133 kts | 153° |
| 2026-04-26 15:03 | 45.97386 | 6.34323 | 10356 ft | 134 kts | 155° |
| 2026-04-26 15:04 | 45.96570 | 6.34936 | 10631 ft | 134 kts | 154° |
| 2026-04-26 15:04 | 45.95739 | 6.35553 | 10848 ft | 136 kts | 154° |
| 2026-04-26 15:04 | 45.94888 | 6.36179 | 11091 ft | 138 kts | 154° |
| 2026-04-26 15:04 | 45.94026 | 6.36803 | 11317 ft | 138 kts | 155° |
| 2026-04-26 15:05 | 45.93173 | 6.37437 | 11538 ft | 138 kts | 154° |
| 2026-04-26 15:05 | 45.92595 | 6.37872 | 11713 ft | 140 kts | 154° |
| 2026-04-26 15:05 | 45.91428 | 6.38715 | 12060 ft | 142 kts | 155° |
| 2026-04-26 15:05 | 45.90544 | 6.39362 | 12305 ft | 143 kts | 154° |
| 2026-04-26 15:06 | 45.89650 | 6.40017 | 12560 ft | 145 kts | 154° |
| 2026-04-26 15:06 | 45.88751 | 6.40676 | 12848 ft | 146 kts | 153° |
| 2026-04-26 15:06 | 45.87832 | 6.41330 | 13097 ft | 148 kts | 154° |
| 2026-04-26 15:06 | 45.86907 | 6.41978 | 13352 ft | 149 kts | 160° |
| 2026-04-26 15:07 | 45.84744 | 6.42134 | 13578 ft | 170 kts | 178° |
| 2026-04-26 15:07 | 45.83514 | 6.42224 | 13573 ft | 183 kts | 178° |
| 2026-04-26 15:07 | 45.82218 | 6.42330 | 13577 ft | 191 kts | 177° |
| 2026-04-26 15:08 | 45.80870 | 6.42439 | 13577 ft | 196 kts | 178° |
| 2026-04-26 15:08 | 45.79494 | 6.42560 | 13572 ft | 199 kts | 178° |
| 2026-04-26 15:08 | 45.78102 | 6.42661 | 13569 ft | 201 kts | 178° |
| 2026-04-26 15:08 | 45.76739 | 6.42764 | 13570 ft | 202 kts | 179° |
| 2026-04-26 15:09 | 45.75354 | 6.42474 | 13564 ft | 202 kts | 198° |
| 2026-04-26 15:09 | 45.74010 | 6.41893 | 13570 ft | 202 kts | 197° |
| 2026-04-26 15:09 | 45.72656 | 6.41352 | 13569 ft | 202 kts | 196° |
| 2026-04-26 15:09 | 45.71297 | 6.40808 | 13569 ft | 202 kts | 197° |
| 2026-04-26 15:10 | 45.69944 | 6.40260 | 13568 ft | 202 kts | 193° |
| 2026-04-26 15:10 | 45.69017 | 6.40154 | 13568 ft | 203 kts | 176° |
| 2026-04-26 15:10 | 45.67241 | 6.41020 | 13568 ft | 205 kts | 147° |
| 2026-04-26 15:10 | 45.66237 | 6.42453 | 13580 ft | 206 kts | 126° |
| 2026-04-26 15:11 | 45.65352 | 6.44018 | 13571 ft | 205 kts | 140° |
| 2026-04-26 15:11 | 45.64107 | 6.44990 | 13565 ft | 205 kts | 163° |
| 2026-04-26 15:11 | 45.62705 | 6.45285 | 13565 ft | 204 kts | 176° |
| 2026-04-26 15:11 | 45.61287 | 6.45458 | 13568 ft | 204 kts | 175° |
| 2026-04-26 15:12 | 45.59870 | 6.45645 | 13570 ft | 205 kts | 176° |
| 2026-04-26 15:12 | 45.58450 | 6.45821 | 13568 ft | 204 kts | 176° |
| 2026-04-26 15:12 | 45.57035 | 6.45995 | 13568 ft | 204 kts | 176° |
| 2026-04-26 15:12 | 45.55647 | 6.46356 | 13565 ft | 204 kts | 159° |
| 2026-04-26 15:13 | 45.54423 | 6.47376 | 13569 ft | 204 kts | 147° |
| 2026-04-26 15:13 | 45.53236 | 6.48496 | 13570 ft | 205 kts | 148° |
| 2026-04-26 15:13 | 45.52034 | 6.49599 | 13517 ft | 207 kts | 147° |
| 2026-04-26 15:13 | 45.50836 | 6.50705 | 13219 ft | 198 kts | 147° |
| 2026-04-26 15:14 | 45.49726 | 6.51723 | 12917 ft | 183 kts | 148° |
| 2026-04-26 15:14 | 45.48688 | 6.52693 | 12616 ft | 174 kts | 144° |
| 2026-04-26 15:14 | 45.47885 | 6.53933 | 12312 ft | 168 kts | 128° |
| 2026-04-26 15:14 | 45.47176 | 6.55234 | 12035 ft | 164 kts | 129° |
| 2026-04-26 15:15 | 45.46462 | 6.56503 | 11757 ft | 164 kts | 130° |
| 2026-04-26 15:15 | 45.45758 | 6.57753 | 11463 ft | 157 kts | 130° |
| 2026-04-26 15:15 | 45.45256 | 6.59022 | 11225 ft | 132 kts | 108° |
| 2026-04-26 15:15 | 45.45141 | 6.60310 | 10695 ft | 132 kts | 88° |
| 2026-04-26 15:16 | 45.45606 | 6.61414 | 10127 ft | 133 kts | 27° |
| 2026-04-26 15:16 | 45.46430 | 6.61267 | 9616 ft | 125 kts | 315° |
| 2026-04-26 15:16 | 45.46690 | 6.60095 | 8910 ft | 129 kts | 262° |
| 2026-04-26 15:16 | 45.46177 | 6.59168 | 8474 ft | 122 kts | 200° |
| 2026-04-26 15:17 | 45.45441 | 6.59335 | 8428 ft | 106 kts | 140° |
| 2026-04-26 15:17 | 45.45179 | 6.59915 | 8399 ft | 108 kts | 109° |
| 2026-04-26 15:17 | 45.44963 | 6.61397 | 8156 ft | 121 kts | 94° |
| 2026-04-26 15:17 | 45.44823 | 6.62628 | 7861 ft | 130 kts | 102° |
| 2026-04-26 15:18 | 45.44547 | 6.63835 | 7588 ft | 126 kts | 112° |
| 2026-04-26 15:18 | 45.44133 | 6.64881 | 7471 ft | 121 kts | 123° |
| 2026-04-26 15:18 | 45.43657 | 6.65771 | 7443 ft | 110 kts | 127° |
| 2026-04-26 15:18 | 45.43053 | 6.66365 | 7355 ft | 110 kts | 166° |
| 2026-04-26 15:19 | 45.42312 | 6.66221 | 7255 ft | 108 kts | 195° |
| 2026-04-26 15:19 | 45.41633 | 6.65812 | 7208 ft | 105 kts | 209° |
| 2026-04-26 15:19 | 45.41011 | 6.65210 | 7016 ft | 114 kts | 218° |
| 2026-04-26 15:19 | 45.40431 | 6.64445 | 6630 ft | 111 kts | 226° |
| 2026-04-26 15:20 | 45.39926 | 6.63740 | 6414 ft | 89 kts | 226° |
| 2026-04-26 15:20 | 45.39660 | 6.63367 | 6604 ft | 19 kts | 221° |
| 2026-04-26 15:20 | 45.39601 | 6.63293 | 6604 ft | 3 kts | 218° |
| 2026-04-26 15:20 | 45.39576 | 6.63318 | 6600 ft | 5 kts | 94° |
| 2026-04-26 15:21 | 45.39576 | 6.63346 | 6599 ft | 0 kts | 37° |